sensor_id;sensor_type;location;lat;lon;timestamp;pressure;altitude;pressure_sealevel;temperature;humidity
62111;BME280;48102;47.526;19.072;2023-05-22T03:43:11;100324.78;;;13.60;100.00
62111;BME280;48102;47.526;19.072;2023-05-22T03:46:14;100328.00;;;13.65;100.00
62111;BME280;48102;47.526;19.072;2023-05-22T03:49:20;100337.53;;;13.82;100.00
62111;BME280;48102;47.526;19.072;2023-05-22T03:52:24;100329.84;;;13.92;100.00
62111;BME280;48102;47.526;19.072;2023-05-22T03:55:26;100325.63;;;14.02;100.00
62111;BME280;48102;47.526;19.072;2023-05-22T03:58:32;100329.19;;;14.15;100.00
62111;BME280;48102;47.526;19.072;2023-05-22T04:01:35;100332.84;;;14.27;100.00
62111;BME280;48102;47.526;19.072;2023-05-22T04:04:41;100329.41;;;14.39;100.00
62111;BME280;48102;47.526;19.072;2023-05-22T04:07:47;100330.31;;;14.52;100.00
62111;BME280;48102;47.526;19.072;2023-05-22T04:10:50;100323.97;;;14.68;100.00
62111;BME280;48102;47.526;19.072;2023-05-22T04:13:55;100339.22;;;14.91;100.00
62111;BME280;48102;47.526;19.072;2023-05-22T04:16:58;100333.06;;;15.03;100.00
62111;BME280;48102;47.526;19.072;2023-05-22T04:20:02;100334.12;;;15.14;100.00
62111;BME280;48102;47.526;19.072;2023-05-22T04:23:07;100330.44;;;15.29;100.00
62111;BME280;48102;47.526;19.072;2023-05-22T04:26:12;100323.81;;;15.47;100.00
62111;BME280;48102;47.526;19.072;2023-05-22T04:29:15;100325.37;;;15.75;100.00
62111;BME280;48102;47.526;19.072;2023-05-22T04:32:18;100334.88;;;16.03;100.00
62111;BME280;48102;47.526;19.072;2023-05-22T04:35:23;100331.50;;;16.25;100.00
62111;BME280;48102;47.526;19.072;2023-05-22T04:38:26;100335.81;;;16.39;100.00
62111;BME280;48102;47.526;19.072;2023-05-22T04:41:29;100331.16;;;16.54;100.00
62111;BME280;48102;47.526;19.072;2023-05-22T04:44:32;100329.38;;;16.66;100.00
62111;BME280;48102;47.526;19.072;2023-05-22T04:47:36;100326.22;;;16.85;100.00
62111;BME280;48102;47.526;19.072;2023-05-22T04:50:42;100329.91;;;17.06;100.00
62111;BME280;48102;47.526;19.072;2023-05-22T04:53:47;100328.47;;;17.24;100.00
62111;BME280;48102;47.526;19.072;2023-05-22T04:56:51;100337.19;;;17.38;100.00
62111;BME280;48102;47.526;19.072;2023-05-22T04:59:54;100331.16;;;17.58;100.00
62111;BME280;48102;47.526;19.072;2023-05-22T05:02:58;100322.81;;;17.74;100.00
62111;BME280;48102;47.526;19.072;2023-05-22T05:06:02;100322.66;;;17.87;100.00
62111;BME280;48102;47.526;19.072;2023-05-22T05:09:05;100325.31;;;18.09;100.00
62111;BME280;48102;47.526;19.072;2023-05-22T05:12:09;100327.31;;;18.28;100.00
62111;BME280;48102;47.526;19.072;2023-05-22T05:15:15;100344.91;;;18.51;100.00
62111;BME280;48102;47.526;19.072;2023-05-22T05:18:18;100347.09;;;18.58;100.00
62111;BME280;48102;47.526;19.072;2023-05-22T05:21:22;100352.16;;;18.61;100.00
62111;BME280;48102;47.526;19.072;2023-05-22T05:24:30;100353.25;;;18.69;99.83
62111;BME280;48102;47.526;19.072;2023-05-22T05:27:33;100354.56;;;18.75;97.23
62111;BME280;48102;47.526;19.072;2023-05-22T05:30:39;100356.13;;;18.77;98.45
62111;BME280;48102;47.526;19.072;2023-05-22T05:33:43;100358.53;;;18.80;99.53
62111;BME280;48102;47.526;19.072;2023-05-22T05:36:46;100359.78;;;18.76;96.57
62111;BME280;48102;47.526;19.072;2023-05-22T05:39:49;100358.78;;;18.77;96.44
62111;BME280;48102;47.526;19.072;2023-05-22T05:42:54;100359.84;;;18.86;94.58
62111;BME280;48102;47.526;19.072;2023-05-22T05:45:58;100361.94;;;19.03;94.87
62111;BME280;48102;47.526;19.072;2023-05-22T05:49:06;100364.00;;;19.21;90.70
62111;BME280;48102;47.526;19.072;2023-05-22T05:52:12;100365.44;;;19.46;90.63
62111;BME280;48102;47.526;19.072;2023-05-22T05:55:15;100369.19;;;19.64;88.49
62111;BME280;48102;47.526;19.072;2023-05-22T05:58:18;100371.53;;;19.78;77.60
62111;BME280;48102;47.526;19.072;2023-05-22T06:01:25;100373.91;;;20.12;84.49
62111;BME280;48102;47.526;19.072;2023-05-22T06:04:28;100372.25;;;20.30;86.49
62111;BME280;48102;47.526;19.072;2023-05-22T06:07:31;100373.34;;;20.38;80.60
62111;BME280;48102;47.526;19.072;2023-05-22T06:10:34;100371.88;;;20.54;79.98
62111;BME280;48102;47.526;19.072;2023-05-22T06:13:44;100371.75;;;20.56;79.04
62111;BME280;48102;47.526;19.072;2023-05-22T06:16:47;100367.50;;;20.53;81.21
62111;BME280;48102;47.526;19.072;2023-05-22T06:19:51;100371.81;;;20.45;80.08
62111;BME280;48102;47.526;19.072;2023-05-22T06:22:55;100377.41;;;20.13;82.33
62111;BME280;48102;47.526;19.072;2023-05-22T06:25:58;100371.31;;;19.91;85.41
62111;BME280;48102;47.526;19.072;2023-05-22T06:29:01;100375.91;;;19.89;88.20
62111;BME280;48102;47.526;19.072;2023-05-22T06:32:05;100375.50;;;19.94;83.40
62111;BME280;48102;47.526;19.072;2023-05-22T06:35:10;100374.97;;;20.00;82.39
62111;BME280;48102;47.526;19.072;2023-05-22T06:38:13;100375.28;;;20.16;81.42
62111;BME280;48102;47.526;19.072;2023-05-22T06:41:17;100375.78;;;20.41;77.28
62111;BME280;48102;47.526;19.072;2023-05-22T06:44:21;100378.50;;;20.89;78.19
62111;BME280;48102;47.526;19.072;2023-05-22T06:47:27;100375.16;;;21.63;65.64
62111;BME280;48102;47.526;19.072;2023-05-22T06:50:31;100376.41;;;21.96;67.27
62111;BME280;48102;47.526;19.072;2023-05-22T06:53:34;100372.94;;;22.14;65.46
62111;BME280;48102;47.526;19.072;2023-05-22T06:56:37;100382.31;;;22.27;57.97
62111;BME280;48102;47.526;19.072;2023-05-22T06:59:40;100382.09;;;22.21;57.22
62111;BME280;48102;47.526;19.072;2023-05-22T07:02:46;100387.03;;;22.43;65.10
62111;BME280;48102;47.526;19.072;2023-05-22T07:05:49;100379.22;;;22.86;64.32
62111;BME280;48102;47.526;19.072;2023-05-22T07:08:52;100385.16;;;23.33;62.45
62111;BME280;48102;47.526;19.072;2023-05-22T07:11:56;100384.66;;;23.64;56.96
62111;BME280;48102;47.526;19.072;2023-05-22T07:14:59;100386.97;;;24.19;56.48
62111;BME280;48102;47.526;19.072;2023-05-22T07:18:04;100376.00;;;24.87;52.17
62111;BME280;48102;47.526;19.072;2023-05-22T07:21:08;100380.06;;;25.24;53.32
62111;BME280;48102;47.526;19.072;2023-05-22T07:24:11;100374.62;;;25.48;51.78
62111;BME280;48102;47.526;19.072;2023-05-22T07:27:14;100383.09;;;25.05;48.17
62111;BME280;48102;47.526;19.072;2023-05-22T07:30:18;100378.53;;;24.81;45.46
62111;BME280;48102;47.526;19.072;2023-05-22T07:33:21;100384.44;;;24.84;44.78
62111;BME280;48102;47.526;19.072;2023-05-22T07:36:25;100385.59;;;24.15;45.15
62111;BME280;48102;47.526;19.072;2023-05-22T07:39:28;100376.63;;;23.38;46.19
62111;BME280;48102;47.526;19.072;2023-05-22T07:42:31;100367.41;;;23.22;48.83
62111;BME280;48102;47.526;19.072;2023-05-22T07:45:36;100366.78;;;23.02;49.25
62111;BME280;48102;47.526;19.072;2023-05-22T07:48:42;100369.59;;;22.83;45.27
62111;BME280;48102;47.526;19.072;2023-05-22T07:51:45;100371.16;;;22.68;48.69
62111;BME280;48102;47.526;19.072;2023-05-22T07:54:49;100370.25;;;22.95;51.09
62111;BME280;48102;47.526;19.072;2023-05-22T07:57:52;100369.34;;;23.30;49.95
62111;BME280;48102;47.526;19.072;2023-05-22T08:00:56;100378.94;;;23.59;47.50
62111;BME280;48102;47.526;19.072;2023-05-22T08:04:00;100373.84;;;23.82;45.90
62111;BME280;48102;47.526;19.072;2023-05-22T08:07:03;100369.00;;;23.85;45.45
62111;BME280;48102;47.526;19.072;2023-05-22T08:10:17;100368.72;;;23.96;47.41
62111;BME280;48102;47.526;19.072;2023-05-22T08:13:21;100379.50;;;23.96;45.66
62111;BME280;48102;47.526;19.072;2023-05-22T08:16:23;100384.75;;;23.72;46.49
62111;BME280;48102;47.526;19.072;2023-05-22T08:19:27;100374.16;;;23.52;44.80
62111;BME280;48102;47.526;19.072;2023-05-22T08:22:30;100376.81;;;23.44;46.39
62111;BME280;48102;47.526;19.072;2023-05-22T08:25:32;100368.84;;;23.35;46.20
62111;BME280;48102;47.526;19.072;2023-05-22T08:28:35;100371.81;;;23.23;46.22
62111;BME280;48102;47.526;19.072;2023-05-22T08:31:38;100367.41;;;23.40;47.08
62111;BME280;48102;47.526;19.072;2023-05-22T08:34:44;100366.06;;;23.44;47.55
62111;BME280;48102;47.526;19.072;2023-05-22T08:37:47;100365.78;;;23.82;49.35
62111;BME280;48102;47.526;19.072;2023-05-22T08:40:52;100365.34;;;23.94;45.62
62111;BME280;48102;47.526;19.072;2023-05-22T08:43:56;100366.63;;;24.24;46.94
62111;BME280;48102;47.526;19.072;2023-05-22T08:47:00;100367.88;;;24.55;45.46
62111;BME280;48102;47.526;19.072;2023-05-22T08:50:03;100371.28;;;24.97;46.05
62111;BME280;48102;47.526;19.072;2023-05-22T08:53:07;100366.22;;;25.43;42.39
62111;BME280;48102;47.526;19.072;2023-05-22T08:56:13;100366.03;;;25.45;44.78
62111;BME280;48102;47.526;19.072;2023-05-22T08:59:17;100360.69;;;25.76;42.08
62111;BME280;48102;47.526;19.072;2023-05-22T09:02:20;100362.19;;;26.26;41.13
62111;BME280;48102;47.526;19.072;2023-05-22T09:05:24;100356.28;;;26.76;42.51
62111;BME280;48102;47.526;19.072;2023-05-22T09:08:28;100358.44;;;26.81;41.76
62111;BME280;48102;47.526;19.072;2023-05-22T09:11:32;100365.97;;;26.71;41.09
62111;BME280;48102;47.526;19.072;2023-05-22T09:14:39;100357.22;;;26.69;43.00
62111;BME280;48102;47.526;19.072;2023-05-22T09:17:44;100354.75;;;26.28;42.31
62111;BME280;48102;47.526;19.072;2023-05-22T09:20:47;100348.97;;;26.08;43.25
62111;BME280;48102;47.526;19.072;2023-05-22T09:23:50;100354.16;;;25.79;42.03
62111;BME280;48102;47.526;19.072;2023-05-22T09:26:53;100349.66;;;26.02;43.52
62111;BME280;48102;47.526;19.072;2023-05-22T09:29:57;100353.44;;;25.85;44.20
62111;BME280;48102;47.526;19.072;2023-05-22T09:32:59;100346.06;;;26.10;43.40
62111;BME280;48102;47.526;19.072;2023-05-22T09:36:03;100350.56;;;26.25;43.87
62111;BME280;48102;47.526;19.072;2023-05-22T09:39:06;100347.62;;;26.35;42.21
62111;BME280;48102;47.526;19.072;2023-05-22T09:42:10;100343.97;;;25.89;42.79
62111;BME280;48102;47.526;19.072;2023-05-22T09:45:18;100348.19;;;25.91;42.36
62111;BME280;48102;47.526;19.072;2023-05-22T09:48:22;100342.75;;;25.99;42.18
62111;BME280;48102;47.526;19.072;2023-05-22T09:51:26;100344.38;;;26.40;40.95
62111;BME280;48102;47.526;19.072;2023-05-22T09:54:32;100339.63;;;26.73;41.73
62111;BME280;48102;47.526;19.072;2023-05-22T09:57:42;100343.88;;;27.43;40.59
62111;BME280;48102;47.526;19.072;2023-05-22T10:00:47;100340.34;;;27.87;39.64
62111;BME280;48102;47.526;19.072;2023-05-22T10:03:53;100344.44;;;27.68;39.88
62111;BME280;48102;47.526;19.072;2023-05-22T10:06:59;100343.13;;;27.64;39.17
62111;BME280;48102;47.526;19.072;2023-05-22T10:10:06;100339.00;;;27.53;38.76
62111;BME280;48102;47.526;19.072;2023-05-22T10:13:10;100342.75;;;27.52;40.31
62111;BME280;48102;47.526;19.072;2023-05-22T10:16:14;100341.34;;;27.26;39.02
62111;BME280;48102;47.526;19.072;2023-05-22T10:19:18;100335.47;;;27.00;40.25
62111;BME280;48102;47.526;19.072;2023-05-22T10:22:21;100322.13;;;27.36;40.71
62111;BME280;48102;47.526;19.072;2023-05-22T10:25:24;100324.97;;;28.09;38.41
62111;BME280;48102;47.526;19.072;2023-05-22T10:28:34;100318.66;;;28.23;38.44
62111;BME280;48102;47.526;19.072;2023-05-22T10:35:15;100311.53;;;28.37;37.07
62111;BME280;48102;47.526;19.072;2023-05-22T10:41:33;100308.00;;;28.36;37.14
62111;BME280;48102;47.526;19.072;2023-05-22T10:44:36;100302.75;;;28.35;36.90
62111;BME280;48102;47.526;19.072;2023-05-22T10:47:39;100306.78;;;28.39;37.46
62111;BME280;48102;47.526;19.072;2023-05-22T10:50:50;100306.06;;;28.52;39.20
62111;BME280;48102;47.526;19.072;2023-05-22T10:54:00;100298.06;;;28.43;36.65
62111;BME280;48102;47.526;19.072;2023-05-22T10:57:09;100296.66;;;28.75;38.18
62111;BME280;48102;47.526;19.072;2023-05-22T11:00:16;100291.22;;;28.69;36.16
62111;BME280;48102;47.526;19.072;2023-05-22T11:03:21;100290.06;;;28.57;37.32
62111;BME280;48102;47.526;19.072;2023-05-22T11:06:44;100282.81;;;28.64;36.98
62111;BME280;48102;47.526;19.072;2023-05-22T11:09:47;100272.19;;;28.90;37.28
62111;BME280;48102;47.526;19.072;2023-05-22T11:13:12;100276.06;;;29.03;35.65
62111;BME280;48102;47.526;19.072;2023-05-22T11:16:15;100268.69;;;28.96;37.75
62111;BME280;48102;47.526;19.072;2023-05-22T11:19:20;100258.50;;;28.98;36.44
62111;BME280;48102;47.526;19.072;2023-05-22T11:22:36;100263.28;;;28.96;34.57
62111;BME280;48102;47.526;19.072;2023-05-22T11:25:40;100256.56;;;29.27;37.02
62111;BME280;48102;47.526;19.072;2023-05-22T11:28:47;100257.91;;;29.86;36.46
62111;BME280;48102;47.526;19.072;2023-05-22T11:31:51;100253.03;;;30.29;35.59
62111;BME280;48102;47.526;19.072;2023-05-22T11:34:56;100257.63;;;30.95;34.64
62111;BME280;48102;47.526;19.072;2023-05-22T11:38:03;100255.25;;;31.38;33.95
62111;BME280;48102;47.526;19.072;2023-05-22T11:41:08;100251.72;;;31.89;34.37
62111;BME280;48102;47.526;19.072;2023-05-22T11:44:12;100242.06;;;31.93;34.39
62111;BME280;48102;47.526;19.072;2023-05-22T11:47:14;100245.59;;;32.01;33.88
62111;BME280;48102;47.526;19.072;2023-05-22T11:50:18;100237.94;;;32.47;31.93
62111;BME280;48102;47.526;19.072;2023-05-22T11:53:35;100234.84;;;33.12;29.81
62111;BME280;48102;47.526;19.072;2023-05-22T11:56:42;100236.44;;;33.57;29.40
62111;BME280;48102;47.526;19.072;2023-05-22T11:59:49;100237.16;;;34.89;30.41
62111;BME280;48102;47.526;19.072;2023-05-22T12:02:53;100237.84;;;37.35;25.79
62111;BME280;48102;47.526;19.072;2023-05-22T12:05:57;100237.28;;;38.31;23.14
62111;BME280;48102;47.526;19.072;2023-05-22T12:09:00;100227.56;;;39.46;23.98
62111;BME280;48102;47.526;19.072;2023-05-22T12:12:03;100232.56;;;41.43;21.25
62111;BME280;48102;47.526;19.072;2023-05-22T12:15:07;100220.03;;;41.60;19.67
62111;BME280;48102;47.526;19.072;2023-05-22T12:18:10;100222.78;;;40.85;21.56
62111;BME280;48102;47.526;19.072;2023-05-22T12:21:13;100208.12;;;42.04;20.90
62111;BME280;48102;47.526;19.072;2023-05-22T12:24:16;100207.31;;;44.01;19.44
62111;BME280;48102;47.526;19.072;2023-05-22T12:27:28;100212.28;;;44.37;18.78
62111;BME280;48102;47.526;19.072;2023-05-22T12:30:38;100208.69;;;44.83;19.73
62111;BME280;48102;47.526;19.072;2023-05-22T12:33:43;100193.81;;;46.60;17.81
62111;BME280;48102;47.526;19.072;2023-05-22T12:36:46;100189.31;;;46.27;19.31
62111;BME280;48102;47.526;19.072;2023-05-22T12:39:59;100193.22;;;45.82;17.82
62111;BME280;48102;47.526;19.072;2023-05-22T12:43:03;100188.19;;;46.91;18.85
62111;BME280;48102;47.526;19.072;2023-05-22T12:46:05;100187.62;;;46.80;16.12
62111;BME280;48102;47.526;19.072;2023-05-22T12:49:09;100177.25;;;46.72;16.55
62111;BME280;48102;47.526;19.072;2023-05-22T12:52:12;100169.47;;;47.74;16.54
62111;BME280;48102;47.526;19.072;2023-05-22T12:55:15;100169.44;;;48.09;16.06
62111;BME280;48102;47.526;19.072;2023-05-22T12:58:18;100157.78;;;47.98;16.83
62111;BME280;48102;47.526;19.072;2023-05-22T13:01:21;100155.31;;;49.71;16.21
62111;BME280;48102;47.526;19.072;2023-05-22T13:04:25;100150.69;;;49.54;14.46
62111;BME280;48102;47.526;19.072;2023-05-22T13:07:28;100144.00;;;50.58;15.30
62111;BME280;48102;47.526;19.072;2023-05-22T13:10:31;100141.50;;;51.71;14.32
62111;BME280;48102;47.526;19.072;2023-05-22T13:13:34;100137.53;;;51.19;14.08
62111;BME280;48102;47.526;19.072;2023-05-22T13:16:37;100128.91;;;51.00;13.27
62111;BME280;48102;47.526;19.072;2023-05-22T13:19:41;100134.94;;;52.38;14.10
62111;BME280;48102;47.526;19.072;2023-05-22T13:22:44;100122.47;;;52.71;12.78
62111;BME280;48102;47.526;19.072;2023-05-22T13:25:47;100124.87;;;53.04;12.62
62111;BME280;48102;47.526;19.072;2023-05-22T13:28:50;100115.81;;;52.95;13.13
62111;BME280;48102;47.526;19.072;2023-05-22T13:31:53;100118.06;;;52.38;12.68
62111;BME280;48102;47.526;19.072;2023-05-22T13:34:56;100108.94;;;50.40;14.24
62111;BME280;48102;47.526;19.072;2023-05-22T13:37:59;100103.69;;;50.63;13.69
62111;BME280;48102;47.526;19.072;2023-05-22T13:41:02;100103.78;;;49.01;14.49
62111;BME280;48102;47.526;19.072;2023-05-22T13:44:05;100103.59;;;49.27;14.78
62111;BME280;48102;47.526;19.072;2023-05-22T13:47:08;100089.56;;;48.08;16.29
62111;BME280;48102;47.526;19.072;2023-05-22T13:50:11;100092.63;;;49.96;15.26
62111;BME280;48102;47.526;19.072;2023-05-22T13:53:19;100097.87;;;52.21;12.79
62111;BME280;48102;47.526;19.072;2023-05-22T13:56:22;100099.41;;;52.02;12.19
62111;BME280;48102;47.526;19.072;2023-05-22T13:59:25;100095.00;;;52.64;12.74
62111;BME280;48102;47.526;19.072;2023-05-22T14:02:28;100095.94;;;52.72;14.37
62111;BME280;48102;47.526;19.072;2023-05-22T14:05:32;100095.03;;;52.84;12.77
62111;BME280;48102;47.526;19.072;2023-05-22T14:08:34;100093.72;;;54.40;11.64
62111;BME280;48102;47.526;19.072;2023-05-22T14:11:38;100087.09;;;55.08;11.58
62111;BME280;48102;47.526;19.072;2023-05-22T14:14:41;100082.84;;;55.22;11.92
62111;BME280;48102;47.526;19.072;2023-05-22T14:17:43;100083.09;;;54.30;10.69
62111;BME280;48102;47.526;19.072;2023-05-22T14:20:46;100075.31;;;52.84;12.63
62111;BME280;48102;47.526;19.072;2023-05-22T14:23:49;100070.28;;;53.48;12.72
62111;BME280;48102;47.526;19.072;2023-05-22T14:26:52;100057.91;;;49.89;13.68
62111;BME280;48102;47.526;19.072;2023-05-22T14:29:59;100057.66;;;49.28;14.40
62111;BME280;48102;47.526;19.072;2023-05-22T14:33:02;100054.44;;;49.38;15.82
62111;BME280;48102;47.526;19.072;2023-05-22T14:36:05;100056.28;;;50.98;13.25
62111;BME280;48102;47.526;19.072;2023-05-22T14:39:09;100055.03;;;49.43;13.37
62111;BME280;48102;47.526;19.072;2023-05-22T14:42:12;100053.69;;;49.29;14.12
62111;BME280;48102;47.526;19.072;2023-05-22T14:45:14;100054.16;;;49.31;14.66
62111;BME280;48102;47.526;19.072;2023-05-22T14:48:18;100051.03;;;50.97;14.60
62111;BME280;48102;47.526;19.072;2023-05-22T14:51:20;100047.37;;;51.64;13.88
62111;BME280;48102;47.526;19.072;2023-05-22T14:54:24;100037.72;;;49.29;14.73
62111;BME280;48102;47.526;19.072;2023-05-22T14:57:28;100038.09;;;51.20;14.23
62111;BME280;48102;47.526;19.072;2023-05-22T15:00:32;100041.66;;;51.89;13.63
62111;BME280;48102;47.526;19.072;2023-05-22T15:03:34;100045.16;;;52.65;13.04
62111;BME280;48102;47.526;19.072;2023-05-22T15:06:37;100040.34;;;52.65;13.43
62111;BME280;48102;47.526;19.072;2023-05-22T15:09:40;100033.75;;;52.10;13.08
62111;BME280;48102;47.526;19.072;2023-05-22T15:12:43;100038.88;;;53.49;13.83
62111;BME280;48102;47.526;19.072;2023-05-22T15:15:45;100041.34;;;53.51;12.34
62111;BME280;48102;47.526;19.072;2023-05-22T15:18:49;100036.72;;;52.49;12.38
62111;BME280;48102;47.526;19.072;2023-05-22T15:21:52;100027.47;;;51.13;13.00
62111;BME280;48102;47.526;19.072;2023-05-22T15:25:07;100024.97;;;51.52;13.58
62111;BME280;48102;47.526;19.072;2023-05-22T15:28:10;100010.06;;;50.06;14.06
62111;BME280;48102;47.526;19.072;2023-05-22T15:31:13;99998.16;;;46.84;16.60
62111;BME280;48102;47.526;19.072;2023-05-22T15:34:16;100000.50;;;44.53;17.20
62111;BME280;48102;47.526;19.072;2023-05-22T15:37:19;100000.28;;;41.27;21.36
